createdAt,value
2023-03-05T00:01:09.317Z,18.63
2023-03-05T00:03:36.744Z,22.85
2023-03-05T00:06:04.037Z,18.87
2023-03-05T00:08:31.242Z,17.23
2023-03-05T00:11:04.092Z,18.20
2023-03-05T00:13:31.044Z,18.10
2023-03-05T00:15:57.970Z,17.70
2023-03-05T00:18:25.156Z,18.50
2023-03-05T00:20:51.759Z,18.07
2023-03-05T00:23:18.395Z,18.90
2023-03-05T00:25:46.504Z,18.40
2023-03-05T00:28:13.645Z,18.00
2023-03-05T00:30:40.540Z,18.23
2023-03-05T00:33:08.243Z,18.07
2023-03-05T00:35:46.141Z,18.67
2023-03-05T00:38:13.758Z,18.37
2023-03-05T00:40:41.776Z,18.47
2023-03-05T00:43:09.069Z,22.90
2023-03-05T00:45:35.861Z,19.00
2023-03-05T00:48:02.930Z,18.73
2023-03-05T00:50:29.541Z,17.10
2023-03-05T00:52:56.313Z,18.30
2023-03-05T00:55:22.931Z,16.47
2023-03-05T00:57:49.554Z,18.23
2023-03-05T01:00:17.234Z,18.67
2023-03-05T01:02:43.941Z,19.37
2023-03-05T01:05:12.776Z,16.43
2023-03-05T01:07:39.968Z,18.43
2023-03-05T01:10:08.026Z,18.10
2023-03-05T01:12:34.672Z,17.80
2023-03-05T01:15:01.334Z,17.47
2023-03-05T01:17:27.968Z,17.77
2023-03-05T01:19:54.683Z,17.07
2023-03-05T01:22:21.293Z,21.02
2023-03-05T01:24:47.907Z,17.77
2023-03-05T01:27:14.511Z,18.53
2023-03-05T01:29:41.085Z,17.60
2023-03-05T01:32:07.670Z,17.20
2023-03-05T01:34:36.756Z,17.80
2023-03-05T01:37:03.412Z,16.97
2023-03-05T01:39:30.045Z,17.13
2023-03-05T01:41:56.609Z,17.00
2023-03-05T01:44:26.277Z,16.17
2023-03-05T01:46:53.187Z,17.60
2023-03-05T01:49:34.310Z,17.40
2023-03-05T01:52:09.689Z,17.53
2023-03-05T01:54:47.764Z,16.43
2023-03-05T01:57:19.971Z,22.20
2023-03-05T01:59:50.289Z,17.97
2023-03-05T02:02:18.429Z,16.20
2023-03-05T02:04:50.720Z,16.33
2023-03-05T02:07:18.344Z,15.07
2023-03-05T02:09:45.004Z,16.10
2023-03-05T02:12:13.203Z,14.93
2023-03-05T02:14:42.402Z,14.87
2023-03-05T02:17:10.680Z,14.40
2023-03-05T02:19:52.641Z,13.77
2023-03-05T02:22:22.038Z,13.63
2023-03-05T02:24:48.607Z,13.30
2023-03-05T02:27:16.148Z,13.17
2023-03-05T02:29:46.140Z,12.60
2023-03-05T02:32:13.721Z,12.60
2023-03-05T02:34:40.951Z,12.23
2023-03-05T02:37:09.216Z,16.35
2023-03-05T02:39:36.360Z,12.50
2023-03-05T02:42:03.367Z,13.20
2023-03-05T02:44:30.101Z,11.53
2023-03-05T02:46:56.828Z,13.47
2023-03-05T02:49:25.984Z,13.03
2023-03-05T02:51:53.200Z,14.20
2023-03-05T02:54:20.304Z,13.43
2023-03-05T02:56:47.372Z,14.07
2023-03-05T02:59:14.414Z,12.40
2023-03-05T03:01:41.450Z,12.67
2023-03-05T03:04:08.564Z,11.73
2023-03-05T03:06:35.149Z,11.83
2023-03-05T03:09:01.734Z,12.60
2023-03-05T03:11:28.372Z,11.57
2023-03-05T03:13:54.942Z,12.50
2023-03-05T03:16:21.664Z,11.70
2023-03-05T03:18:48.797Z,11.20
2023-03-05T03:21:21.201Z,12.10
2023-03-05T03:23:47.897Z,11.37
2023-03-05T03:26:14.737Z,11.60
2023-03-05T03:28:41.346Z,11.20
2023-03-05T03:31:08.080Z,12.47
2023-03-05T03:33:34.729Z,12.87
2023-03-05T03:36:01.426Z,12.07
2023-03-05T03:38:28.171Z,12.27
2023-03-05T03:40:54.762Z,11.70
2023-03-05T03:43:21.380Z,11.03
2023-03-05T03:45:48.114Z,11.43
2023-03-05T03:48:14.780Z,11.77
2023-03-05T03:50:42.534Z,12.55
2023-03-05T03:53:14.104Z,11.67
2023-03-05T03:55:42.813Z,11.50
2023-03-05T03:58:10.099Z,11.27
2023-03-05T04:00:37.186Z,11.47
2023-03-05T04:03:03.849Z,11.40
2023-03-05T04:05:30.627Z,11.93
2023-03-05T04:07:58.542Z,11.33
2023-03-05T04:10:25.972Z,11.70
2023-03-05T04:12:52.856Z,11.03
2023-03-05T04:15:22.795Z,11.83
2023-03-05T04:17:49.443Z,11.63
2023-03-05T04:20:16.226Z,11.00
2023-03-05T04:22:42.926Z,12.20
2023-03-05T04:25:09.917Z,11.20
2023-03-05T04:27:37.851Z,11.50
2023-03-05T04:30:05.238Z,12.03
2023-03-05T04:32:31.949Z,11.80
2023-03-05T04:34:59.187Z,11.97
2023-03-05T04:37:26.232Z,11.83
2023-03-05T04:39:53.396Z,11.93
2023-03-05T04:42:21.130Z,11.03
2023-03-05T04:44:48.962Z,12.47
2023-03-05T04:47:16.769Z,11.70
2023-03-05T04:49:43.620Z,12.03
2023-03-05T04:52:13.859Z,11.27
2023-03-05T04:54:40.488Z,11.87
2023-03-05T04:57:07.337Z,11.83
2023-03-05T04:59:33.952Z,11.70
2023-03-05T05:02:00.584Z,12.70
2023-03-05T05:04:27.205Z,12.00
2023-03-05T05:06:57.173Z,15.68
2023-03-05T05:09:24.792Z,12.97
2023-03-05T05:11:51.661Z,13.03
2023-03-05T05:14:18.967Z,11.90
2023-03-05T05:16:45.749Z,12.73
2023-03-05T05:19:12.525Z,12.47
2023-03-05T05:21:39.216Z,13.30
2023-03-05T05:24:06.318Z,12.00
2023-03-05T05:26:33.189Z,12.70
2023-03-05T05:28:59.814Z,12.90
2023-03-05T05:31:26.458Z,12.27
2023-03-05T05:33:53.084Z,13.07
2023-03-05T05:36:21.514Z,12.63
2023-03-05T05:38:48.533Z,12.70
2023-03-05T05:41:17.835Z,15.82
2023-03-05T05:43:44.588Z,13.47
2023-03-05T05:46:17.033Z,13.13
2023-03-05T05:48:44.905Z,12.57
2023-03-05T05:51:15.260Z,13.07
2023-03-05T05:53:43.077Z,13.23
2023-03-05T05:56:10.924Z,14.97
2023-03-05T05:58:38.900Z,13.33
2023-03-05T06:01:17.373Z,13.93
2023-03-05T06:03:44.261Z,13.83
2023-03-05T06:06:12.820Z,14.40
2023-03-05T06:08:39.872Z,15.20
2023-03-05T06:11:07.526Z,13.33
2023-03-05T06:13:34.944Z,15.13
2023-03-05T06:16:05.500Z,17.90
2023-03-05T06:18:33.191Z,19.83
2023-03-05T06:21:06.139Z,16.17
2023-03-05T06:23:33.328Z,16.13
2023-03-05T06:26:01.762Z,15.57
2023-03-05T06:28:29.729Z,13.97
2023-03-05T06:31:23.834Z,15.13
2023-03-05T06:33:50.621Z,14.37
2023-03-05T06:36:18.930Z,13.60
2023-03-05T06:38:46.949Z,13.87
2023-03-05T06:41:17.466Z,15.30
2023-03-05T06:43:45.747Z,12.87
2023-03-05T06:46:13.674Z,14.20
2023-03-05T06:48:41.359Z,14.77
2023-03-05T06:51:19.621Z,15.67
2023-03-05T06:53:49.474Z,13.93
2023-03-05T06:56:16.937Z,14.33
2023-03-05T06:58:45.901Z,15.47
2023-03-05T07:01:13.528Z,13.30
2023-03-05T07:03:41.021Z,13.30
2023-03-05T07:06:13.571Z,14.17
2023-03-05T07:08:40.319Z,13.90
2023-03-05T07:11:11.762Z,14.03
2023-03-05T07:13:38.548Z,14.00
2023-03-05T07:16:07.420Z,14.87
2023-03-05T07:18:34.436Z,14.03
2023-03-05T07:21:05.810Z,15.63
2023-03-05T07:23:33.768Z,14.13
2023-03-05T07:26:04.766Z,13.73
2023-03-05T07:28:31.799Z,13.97
2023-03-05T07:31:04.730Z,13.67
2023-03-05T07:33:32.158Z,14.97
2023-03-05T07:35:59.276Z,13.80
2023-03-05T07:38:26.319Z,14.43
2023-03-05T07:40:53.318Z,13.63
2023-03-05T07:43:20.367Z,14.23
2023-03-05T07:45:47.367Z,15.33
2023-03-05T07:48:15.902Z,14.30
2023-03-05T07:50:43.124Z,15.37
2023-03-05T07:53:10.701Z,13.60
2023-03-05T07:55:42.817Z,14.30
2023-03-05T07:58:09.816Z,13.63
2023-03-05T08:00:36.863Z,14.50
2023-03-05T08:03:03.951Z,14.47
2023-03-05T08:05:32.162Z,14.53
2023-03-05T08:07:59.279Z,14.53
2023-03-05T08:10:25.961Z,14.30
2023-03-05T08:12:52.645Z,13.80
2023-03-05T08:15:19.194Z,14.00
2023-03-05T08:17:45.812Z,14.47
2023-03-05T08:20:12.969Z,14.13
2023-03-05T08:22:39.621Z,13.87
2023-03-05T08:25:07.139Z,14.40
2023-03-05T08:27:33.756Z,14.23
2023-03-05T08:30:02.675Z,13.90
2023-03-05T08:32:29.553Z,13.60
2023-03-05T08:34:58.496Z,14.70
2023-03-05T08:37:25.523Z,13.97
2023-03-05T08:39:52.216Z,15.13
2023-03-05T08:42:18.808Z,14.80
2023-03-05T08:44:45.447Z,14.03
2023-03-05T08:47:12.011Z,14.57
2023-03-05T08:49:38.671Z,14.93
2023-03-05T08:52:06.848Z,14.97
2023-03-05T08:54:34.470Z,15.13
2023-03-05T08:57:01.509Z,13.57
2023-03-05T08:59:30.084Z,13.80
2023-03-05T09:02:01.106Z,14.60
2023-03-05T09:04:28.201Z,14.83
2023-03-05T09:06:55.205Z,14.87
2023-03-05T09:09:22.994Z,13.60
2023-03-05T09:11:51.856Z,14.50
2023-03-05T09:14:19.012Z,14.23
2023-03-05T09:16:46.094Z,13.17
2023-03-05T09:19:15.038Z,13.43
2023-03-05T09:21:42.235Z,13.70
2023-03-05T09:24:09.334Z,13.60
2023-03-05T09:26:36.398Z,13.57
2023-03-05T09:29:03.562Z,13.77
2023-03-05T09:31:30.619Z,12.23
2023-03-05T09:33:57.647Z,14.07
2023-03-05T09:36:26.120Z,13.87
2023-03-05T09:38:53.505Z,12.47
2023-03-05T09:41:27.054Z,13.17
2023-03-05T09:43:57.998Z,13.10
2023-03-05T09:46:24.968Z,13.67
2023-03-05T09:48:52.892Z,12.57
2023-03-05T09:51:28.693Z,14.03
2023-03-05T09:53:55.687Z,13.30
2023-03-05T09:56:52.523Z,13.33
2023-03-05T09:59:28.633Z,13.30
2023-03-05T10:02:01.326Z,13.27
2023-03-05T10:04:54.415Z,12.87
2023-03-05T10:07:30.989Z,13.30
2023-03-05T10:10:07.623Z,13.30
2023-03-05T10:12:43.679Z,14.57
2023-03-05T10:15:38.040Z,12.90
2023-03-05T10:18:09.091Z,13.10
2023-03-05T10:20:42.588Z,12.70
2023-03-05T10:23:41.887Z,12.67
2023-03-05T10:26:43.440Z,13.30
2023-03-05T10:29:38.497Z,13.83
2023-03-05T10:32:28.244Z,14.23
2023-03-05T10:35:41.578Z,13.37
2023-03-05T10:39:00.078Z,14.60
2023-03-05T10:42:09.174Z,15.00
2023-03-05T10:45:18.259Z,15.00
2023-03-05T10:48:42.478Z,15.77
2023-03-05T10:52:09.861Z,14.87
2023-03-05T10:55:18.617Z,16.20
2023-03-05T10:57:48.086Z,16.30
2023-03-05T11:00:23.540Z,16.40
2023-03-05T11:02:55.292Z,15.63
2023-03-05T11:05:41.362Z,13.87
2023-03-05T11:08:20.275Z,13.70
2023-03-05T11:10:47.253Z,15.30
2023-03-05T11:13:24.574Z,16.27
2023-03-05T11:16:00.290Z,16.47
2023-03-05T11:18:28.894Z,16.63
2023-03-05T11:21:07.093Z,16.00
2023-03-05T11:23:34.103Z,17.17
2023-03-05T11:26:02.515Z,16.50
2023-03-05T11:28:33.630Z,16.97
2023-03-05T11:31:21.739Z,17.40
2023-03-05T11:33:57.998Z,15.83
2023-03-05T11:36:33.294Z,16.73
2023-03-05T11:39:08.974Z,17.20
2023-03-05T11:41:44.271Z,16.00
2023-03-05T11:44:22.159Z,18.77
2023-03-05T11:46:51.719Z,17.13
2023-03-05T11:49:20.683Z,14.10
2023-03-05T11:51:58.459Z,13.13
2023-03-05T11:54:29.669Z,14.90
2023-03-05T11:56:56.909Z,13.43
2023-03-05T11:59:28.952Z,13.13
2023-03-05T12:01:57.642Z,13.00
2023-03-05T12:04:26.221Z,12.37
2023-03-05T12:06:53.281Z,13.00
2023-03-05T12:09:37.734Z,13.07
2023-03-05T12:12:07.545Z,12.73
2023-03-05T12:14:43.130Z,13.43
2023-03-05T12:17:10.181Z,11.80
2023-03-05T12:19:38.707Z,12.97
2023-03-05T12:22:06.922Z,12.97
2023-03-05T12:24:35.665Z,12.53
2023-03-05T12:27:02.677Z,12.10
2023-03-05T12:29:49.193Z,13.23
2023-03-05T12:32:25.596Z,12.87
2023-03-05T12:34:59.759Z,12.77
2023-03-05T12:37:27.194Z,12.43
2023-03-05T12:40:10.666Z,11.63
2023-03-05T12:42:45.813Z,12.70
2023-03-05T12:45:14.274Z,13.60
2023-03-05T12:47:42.167Z,13.37
2023-03-05T12:50:27.463Z,12.90
2023-03-05T12:53:10.845Z,11.90
2023-03-05T12:55:40.834Z,11.37
2023-03-05T12:58:07.812Z,12.23
2023-03-05T13:00:41.233Z,12.13
2023-03-05T13:03:27.319Z,11.20
2023-03-05T13:05:55.786Z,11.33
2023-03-05T13:08:27.308Z,13.03
2023-03-05T13:11:04.812Z,13.30
2023-03-05T13:13:33.771Z,12.10
2023-03-05T13:16:01.149Z,11.27
2023-03-05T13:18:29.585Z,11.33
2023-03-05T13:21:08.230Z,11.20
2023-03-05T13:23:35.760Z,10.37
2023-03-05T13:26:12.316Z,11.50
2023-03-05T13:28:39.928Z,11.27
2023-03-05T13:31:14.882Z,11.37
2023-03-05T13:33:52.999Z,11.37
2023-03-05T13:36:20.417Z,12.37
2023-03-05T13:38:48.085Z,12.53
2023-03-05T13:41:15.072Z,11.77
2023-03-05T13:43:49.366Z,12.33
2023-03-05T13:46:30.399Z,12.43
2023-03-05T13:48:57.904Z,11.47
2023-03-05T13:51:25.664Z,12.33
2023-03-05T13:53:53.333Z,12.40
2023-03-05T13:56:21.064Z,15.43
2023-03-05T13:58:48.117Z,12.97
2023-03-05T14:01:25.062Z,12.50
2023-03-05T14:03:53.876Z,11.53
2023-03-05T14:06:22.833Z,12.07
2023-03-05T14:08:54.448Z,11.33
2023-03-05T14:11:23.103Z,11.77
2023-03-05T14:13:50.280Z,10.87
2023-03-05T14:16:28.929Z,11.53
2023-03-05T14:18:57.261Z,12.13
2023-03-05T14:21:25.045Z,12.90
2023-03-05T14:23:54.726Z,12.90
2023-03-05T14:26:28.994Z,12.73
2023-03-05T14:28:58.828Z,12.97
2023-03-05T14:31:26.707Z,13.20
2023-03-05T14:33:54.180Z,13.17
2023-03-05T14:36:22.947Z,14.67
2023-03-05T14:38:51.537Z,13.83
2023-03-05T14:41:21.707Z,14.63
2023-03-05T14:43:48.768Z,14.93
2023-03-05T14:46:15.869Z,14.50
2023-03-05T14:48:42.945Z,14.60
2023-03-05T14:51:11.429Z,14.13
2023-03-05T14:54:00.473Z,13.97
2023-03-05T14:56:28.643Z,14.10
2023-03-05T14:58:57.516Z,13.70
2023-03-05T15:01:25.353Z,14.00
2023-03-05T15:03:52.437Z,15.00
2023-03-05T15:06:31.668Z,14.93
2023-03-05T15:09:04.316Z,15.20
2023-03-05T15:11:31.430Z,16.90
2023-03-05T15:13:58.398Z,14.57
2023-03-05T15:16:25.456Z,14.73
2023-03-05T15:18:52.477Z,14.53
2023-03-05T15:21:19.472Z,15.43
2023-03-05T15:23:46.519Z,16.00
2023-03-05T15:26:14.682Z,16.93
2023-03-05T15:28:42.547Z,16.13
2023-03-05T15:31:09.631Z,16.20
2023-03-05T15:33:36.898Z,14.83
2023-03-05T15:36:04.068Z,16.93
2023-03-05T15:38:31.074Z,16.70
2023-03-05T15:41:00.600Z,19.88
2023-03-05T15:43:30.452Z,17.60
2023-03-05T15:45:57.517Z,20.85
2023-03-05T15:48:24.544Z,17.57
2023-03-05T15:50:51.567Z,18.17
2023-03-05T15:53:19.181Z,16.40
2023-03-05T15:55:46.425Z,16.23
2023-03-05T15:58:16.219Z,17.83
2023-03-05T16:00:44.071Z,16.90
2023-03-05T16:03:11.244Z,15.87
2023-03-05T16:05:38.831Z,16.07
2023-03-05T16:08:06.312Z,15.33
2023-03-05T16:10:33.572Z,16.13
2023-03-05T16:13:06.198Z,16.83
2023-03-05T16:15:34.985Z,15.67
2023-03-05T16:18:04.676Z,15.07
2023-03-05T16:20:31.844Z,15.90
2023-03-05T16:22:58.883Z,15.57
2023-03-05T16:25:26.662Z,18.50
2023-03-05T16:27:53.715Z,15.73
2023-03-05T16:30:20.909Z,16.00
2023-03-05T16:32:47.968Z,15.77
2023-03-05T16:35:15.515Z,15.13
2023-03-05T16:37:42.915Z,16.97
2023-03-05T16:40:10.917Z,14.70
2023-03-05T16:42:38.011Z,15.20
2023-03-05T16:45:05.548Z,15.03
2023-03-05T16:47:32.617Z,15.67
2023-03-05T16:50:00.777Z,15.00
2023-03-05T16:52:28.943Z,14.83
2023-03-05T16:54:56.072Z,14.73
2023-03-05T16:57:26.187Z,15.80
2023-03-05T16:59:54.421Z,15.17
2023-03-05T17:02:21.611Z,15.43
2023-03-05T17:04:50.221Z,14.80
2023-03-05T17:07:18.207Z,14.47
2023-03-05T17:09:45.712Z,15.83
2023-03-05T17:12:12.698Z,15.53
2023-03-05T17:14:39.926Z,17.57
2023-03-05T17:17:06.931Z,18.13
2023-03-05T17:19:33.998Z,17.13
2023-03-05T17:22:01.036Z,18.63
2023-03-05T17:24:28.081Z,18.20
2023-03-05T17:26:55.058Z,16.93
2023-03-05T17:29:23.137Z,17.57
2023-03-05T17:31:53.151Z,16.23
2023-03-05T17:34:33.273Z,17.92
2023-03-05T17:37:44.412Z,15.77
2023-03-05T17:40:15.284Z,19.20
2023-03-05T17:42:42.423Z,16.00
2023-03-05T17:45:09.544Z,16.30
2023-03-05T17:47:36.728Z,14.50
2023-03-05T17:50:03.956Z,14.83
2023-03-05T17:52:31.069Z,15.97
2023-03-05T17:54:59.081Z,14.80
2023-03-05T17:57:26.557Z,15.07
2023-03-05T17:59:53.602Z,14.37
2023-03-05T18:02:20.591Z,14.57
2023-03-05T18:04:48.450Z,15.60
2023-03-05T18:07:15.454Z,14.17
2023-03-05T18:09:42.496Z,13.77
2023-03-05T18:12:09.495Z,14.47
2023-03-05T18:14:36.472Z,17.15
2023-03-05T18:17:03.461Z,15.40
2023-03-05T18:19:30.494Z,15.70
2023-03-05T18:21:57.493Z,16.60
2023-03-05T18:24:24.456Z,16.87
2023-03-05T18:26:51.472Z,16.30
2023-03-05T18:29:18.907Z,15.90
2023-03-05T18:31:45.962Z,15.93
2023-03-05T18:34:12.946Z,16.10
2023-03-05T18:36:39.968Z,15.63
2023-03-05T18:39:07.025Z,15.03
2023-03-05T18:41:34.039Z,16.77
2023-03-05T18:44:01.992Z,16.67
2023-03-05T18:46:28.975Z,17.83
2023-03-05T18:48:55.941Z,17.27
2023-03-05T18:51:25.803Z,16.17
2023-03-05T18:53:56.030Z,16.57
2023-03-05T18:56:23.078Z,17.53
2023-03-05T18:58:50.133Z,18.30
2023-03-05T19:01:17.906Z,16.80
2023-03-05T19:03:45.593Z,17.93
2023-03-05T19:06:12.685Z,18.37
2023-03-05T19:08:39.856Z,16.03
2023-03-05T19:11:14.692Z,17.07
2023-03-05T19:13:48.733Z,17.73
2023-03-05T19:16:20.183Z,16.83
2023-03-05T19:18:58.019Z,17.27
2023-03-05T19:21:25.028Z,16.90
2023-03-05T19:23:51.628Z,17.40
2023-03-05T19:26:18.238Z,17.67
2023-03-05T19:28:45.222Z,19.98
2023-03-05T19:31:13.812Z,18.53
2023-03-05T19:33:41.231Z,17.80
2023-03-05T19:36:10.095Z,19.03
2023-03-05T19:38:37.108Z,22.73
2023-03-05T19:41:04.468Z,21.83
2023-03-05T19:43:31.366Z,23.97
2023-03-05T19:46:02.768Z,22.27
2023-03-05T19:48:30.032Z,18.70
2023-03-05T19:50:57.200Z,18.40
2023-03-05T19:53:24.244Z,19.23
2023-03-05T19:55:50.903Z,18.27
2023-03-05T19:58:17.757Z,19.43
2023-03-05T20:00:44.522Z,18.40
2023-03-05T20:03:11.362Z,17.73
2023-03-05T20:05:38.058Z,19.10
2023-03-05T20:08:04.836Z,18.87
2023-03-05T20:10:31.601Z,22.88
2023-03-05T20:12:58.186Z,19.80
2023-03-05T20:15:29.131Z,20.53
2023-03-05T20:17:57.293Z,19.23
2023-03-05T20:20:24.477Z,19.00
2023-03-05T20:22:51.221Z,19.90
2023-03-05T20:25:21.018Z,19.33
2023-03-05T20:27:47.929Z,19.20
2023-03-05T20:30:15.709Z,20.73
2023-03-05T20:32:42.453Z,19.80
2023-03-05T20:35:13.401Z,20.17
2023-03-05T20:37:49.068Z,19.73
2023-03-05T20:40:16.715Z,18.83
2023-03-05T20:42:43.665Z,19.70
2023-03-05T20:45:10.658Z,23.65
2023-03-05T20:47:46.154Z,21.50
2023-03-05T20:50:14.806Z,18.97
2023-03-05T20:52:41.397Z,18.40
2023-03-05T20:55:09.098Z,19.13
2023-03-05T20:57:35.685Z,19.17
2023-03-05T21:00:03.488Z,18.80
2023-03-05T21:02:30.948Z,21.27
2023-03-05T21:04:57.515Z,20.07
2023-03-05T21:07:26.114Z,19.90
2023-03-05T21:09:52.676Z,19.43
2023-03-05T21:12:19.218Z,20.20
2023-03-05T21:14:45.797Z,19.93
2023-03-05T21:17:12.381Z,23.50
2023-03-05T21:19:39.294Z,27.10
2023-03-05T21:22:06.021Z,19.83
2023-03-05T21:24:43.365Z,22.63
2023-03-05T21:27:09.899Z,19.20
2023-03-05T21:29:36.443Z,18.77
2023-03-05T21:32:03.251Z,18.83
2023-03-05T21:34:29.935Z,18.03
2023-03-05T21:36:56.511Z,17.40
2023-03-05T21:39:23.052Z,18.97
2023-03-05T21:41:49.825Z,18.47
2023-03-05T21:44:17.663Z,17.03
2023-03-05T21:46:44.388Z,15.70
2023-03-05T21:49:11.169Z,16.43
2023-03-05T21:51:49.386Z,16.47
2023-03-05T21:54:15.927Z,15.33
2023-03-05T21:56:42.463Z,15.93
2023-03-05T21:59:09.112Z,13.77
2023-03-05T22:01:35.656Z,15.57
2023-03-05T22:04:02.275Z,14.90
2023-03-05T22:06:28.952Z,15.37
2023-03-05T22:08:56.051Z,15.13
2023-03-05T22:11:22.644Z,14.63
2023-03-05T22:13:49.292Z,14.23
2023-03-05T22:16:24.472Z,15.20
2023-03-05T22:18:51.599Z,14.40
2023-03-05T22:21:25.922Z,14.50
2023-03-05T22:23:54.238Z,13.50
2023-03-05T22:26:20.810Z,15.13
2023-03-05T22:28:47.412Z,15.07
2023-03-05T22:31:23.849Z,13.80
2023-03-05T22:33:50.907Z,13.73
2023-03-05T22:36:17.681Z,14.77
2023-03-05T22:38:44.978Z,19.73
2023-03-05T22:41:14.242Z,15.93
2023-03-05T22:43:41.196Z,14.67
2023-03-05T22:46:20.142Z,13.77
2023-03-05T22:48:47.149Z,13.23
2023-03-05T22:51:14.826Z,12.97
2023-03-05T22:53:42.005Z,13.13
2023-03-05T22:56:10.881Z,12.50
2023-03-05T22:58:37.620Z,13.23
2023-03-05T23:01:12.127Z,12.43
2023-03-05T23:03:39.225Z,11.87
2023-03-05T23:06:06.435Z,12.57
2023-03-05T23:08:33.061Z,11.80
2023-03-05T23:11:01.220Z,11.43
2023-03-05T23:13:27.872Z,13.77
2023-03-05T23:15:54.439Z,12.10
2023-03-05T23:18:21.057Z,10.97
2023-03-05T23:20:47.630Z,11.93
2023-03-05T23:23:14.264Z,12.00
2023-03-05T23:25:41.130Z,12.03
2023-03-05T23:28:07.715Z,10.90
2023-03-05T23:30:37.788Z,11.30
2023-03-05T23:33:21.940Z,10.87
2023-03-05T23:35:59.817Z,11.60
2023-03-05T23:38:29.078Z,11.30
2023-03-05T23:41:00.430Z,10.43
2023-03-05T23:43:27.418Z,11.00
2023-03-05T23:45:57.201Z,11.53
2023-03-05T23:48:25.858Z,10.83
2023-03-05T23:50:52.991Z,11.67
2023-03-05T23:53:22.281Z,12.48
2023-03-05T23:55:49.486Z,10.93
2023-03-05T23:58:16.905Z,11.57
